sensor_id;sensor_type;location;lat;lon;timestamp;pressure;altitude;pressure_sealevel;temperature
37452;BMP280;23314;51.114;6.900;2023-05-14T07:02:33;101475.22;;;13.50
37452;BMP280;23314;51.114;6.900;2023-05-14T07:04:58;101477.75;;;13.85
37452;BMP280;23314;51.114;6.900;2023-05-14T07:07:23;101471.09;;;14.17
37452;BMP280;23314;51.114;6.900;2023-05-14T07:09:49;101474.38;;;14.48
37452;BMP280;23314;51.114;6.900;2023-05-14T07:12:15;101474.69;;;14.74
37452;BMP280;23314;51.114;6.900;2023-05-14T07:14:40;101476.84;;;14.99
37452;BMP280;23314;51.114;6.900;2023-05-14T07:17:05;101473.31;;;15.23
37452;BMP280;23314;51.114;6.900;2023-05-14T07:19:31;101477.78;;;15.46
37452;BMP280;23314;51.114;6.900;2023-05-14T07:21:56;101476.94;;;15.65
37452;BMP280;23314;51.114;6.900;2023-05-14T07:24:22;101469.19;;;15.84
37452;BMP280;23314;51.114;6.900;2023-05-14T07:26:47;101481.03;;;16.03
37452;BMP280;23314;51.114;6.900;2023-05-14T07:29:13;101477.53;;;16.19
37452;BMP280;23314;51.114;6.900;2023-05-14T07:31:38;101474.16;;;16.31
37452;BMP280;23314;51.114;6.900;2023-05-14T07:34:03;101467.19;;;16.47
37452;BMP280;23314;51.114;6.900;2023-05-14T07:36:28;101472.63;;;16.60
37452;BMP280;23314;51.114;6.900;2023-05-14T07:38:54;101469.16;;;16.72
37452;BMP280;23314;51.114;6.900;2023-05-14T07:41:19;101473.84;;;16.84
37452;BMP280;23314;51.114;6.900;2023-05-14T07:43:45;101470.06;;;16.95
37452;BMP280;23314;51.114;6.900;2023-05-14T07:46:10;101472.03;;;17.07
37452;BMP280;23314;51.114;6.900;2023-05-14T07:48:35;101468.88;;;17.21
37452;BMP280;23314;51.114;6.900;2023-05-14T07:51:01;101464.66;;;17.33
37452;BMP280;23314;51.114;6.900;2023-05-14T07:53:26;101468.50;;;17.45
37452;BMP280;23314;51.114;6.900;2023-05-14T07:55:51;101468.59;;;17.54
37452;BMP280;23314;51.114;6.900;2023-05-14T07:58:17;101466.72;;;17.64
37452;BMP280;23314;51.114;6.900;2023-05-14T08:00:42;101467.91;;;17.76
37452;BMP280;23314;51.114;6.900;2023-05-14T08:03:08;101462.28;;;17.83
37452;BMP280;23314;51.114;6.900;2023-05-14T08:05:33;101462.97;;;17.97
37452;BMP280;23314;51.114;6.900;2023-05-14T08:07:58;101458.72;;;18.09
37452;BMP280;23314;51.114;6.900;2023-05-14T08:10:24;101466.41;;;18.19
37452;BMP280;23314;51.114;6.900;2023-05-14T08:12:49;101461.34;;;18.21
37452;BMP280;23314;51.114;6.900;2023-05-14T08:15:14;101463.16;;;18.24
37452;BMP280;23314;51.114;6.900;2023-05-14T08:17:40;101463.94;;;18.34
37452;BMP280;23314;51.114;6.900;2023-05-14T08:20:06;101468.09;;;18.48
37452;BMP280;23314;51.114;6.900;2023-05-14T08:22:31;101455.69;;;18.60
37452;BMP280;23314;51.114;6.900;2023-05-14T08:24:56;101451.84;;;18.70
37452;BMP280;23314;51.114;6.900;2023-05-14T08:27:22;101463.75;;;18.82
37452;BMP280;23314;51.114;6.900;2023-05-14T08:29:47;101460.16;;;18.85
37452;BMP280;23314;51.114;6.900;2023-05-14T08:32:12;101455.50;;;18.86
37452;BMP280;23314;51.114;6.900;2023-05-14T08:34:38;101455.34;;;18.89
37452;BMP280;23314;51.114;6.900;2023-05-14T08:37:03;101454.50;;;19.02
37452;BMP280;23314;51.114;6.900;2023-05-14T08:39:28;101449.56;;;19.09
37452;BMP280;23314;51.114;6.900;2023-05-14T08:41:56;101442.97;;;19.20
37452;BMP280;23314;51.114;6.900;2023-05-14T08:45:02;101453.19;;;19.34
37452;BMP280;23314;51.114;6.900;2023-05-14T08:47:27;101443.13;;;19.44
37452;BMP280;23314;51.114;6.900;2023-05-14T08:50:05;101433.84;;;19.54
37452;BMP280;23314;51.114;6.900;2023-05-14T08:52:32;101435.78;;;19.63
37452;BMP280;23314;51.114;6.900;2023-05-14T08:54:59;101435.19;;;19.68
37452;BMP280;23314;51.114;6.900;2023-05-14T08:57:25;101433.97;;;19.78
37452;BMP280;23314;51.114;6.900;2023-05-14T08:59:52;101436.03;;;19.93
37452;BMP280;23314;51.114;6.900;2023-05-14T09:02:22;101436.44;;;20.10
37452;BMP280;23314;51.114;6.900;2023-05-14T09:04:54;101434.94;;;20.18
37452;BMP280;23314;51.114;6.900;2023-05-14T09:07:19;101425.38;;;20.32
37452;BMP280;23314;51.114;6.900;2023-05-14T09:09:46;101429.91;;;20.35
37452;BMP280;23314;51.114;6.900;2023-05-14T09:12:11;101435.75;;;20.43
37452;BMP280;23314;51.114;6.900;2023-05-14T09:14:36;101429.56;;;20.42
37452;BMP280;23314;51.114;6.900;2023-05-14T09:17:02;101430.13;;;20.46
37452;BMP280;23314;51.114;6.900;2023-05-14T09:19:27;101430.44;;;20.49
37452;BMP280;23314;51.114;6.900;2023-05-14T09:21:56;101423.66;;;20.53
37452;BMP280;23314;51.114;6.900;2023-05-14T09:24:24;101432.22;;;20.61
37452;BMP280;23314;51.114;6.900;2023-05-14T09:26:54;101417.22;;;20.75
37452;BMP280;23314;51.114;6.900;2023-05-14T09:29:20;101417.91;;;20.85
37452;BMP280;23314;51.114;6.900;2023-05-14T09:31:49;101414.41;;;20.84
37452;BMP280;23314;51.114;6.900;2023-05-14T09:34:26;101416.13;;;20.81
37452;BMP280;23314;51.114;6.900;2023-05-14T09:36:56;101419.84;;;20.84
37452;BMP280;23314;51.114;6.900;2023-05-14T09:39:22;101415.34;;;20.81
37452;BMP280;23314;51.114;6.900;2023-05-14T09:41:48;101405.06;;;20.85
37452;BMP280;23314;51.114;6.900;2023-05-14T09:44:16;101404.22;;;21.03
37452;BMP280;23314;51.114;6.900;2023-05-14T09:46:41;101404.81;;;21.22
37452;BMP280;23314;51.114;6.900;2023-05-14T09:49:06;101402.97;;;21.43
37452;BMP280;23314;51.114;6.900;2023-05-14T09:51:32;101393.72;;;21.65
37452;BMP280;23314;51.114;6.900;2023-05-14T09:53:57;101391.19;;;21.76
37452;BMP280;23314;51.114;6.900;2023-05-14T09:56:22;101397.38;;;21.92
37452;BMP280;23314;51.114;6.900;2023-05-14T09:58:48;101386.13;;;21.99
37452;BMP280;23314;51.114;6.900;2023-05-14T10:01:17;101381.84;;;22.13
37452;BMP280;23314;51.114;6.900;2023-05-14T10:03:43;101392.03;;;22.33
37452;BMP280;23314;51.114;6.900;2023-05-14T10:06:09;101381.09;;;22.48
37452;BMP280;23314;51.114;6.900;2023-05-14T10:08:39;101374.03;;;22.56
37452;BMP280;23314;51.114;6.900;2023-05-14T10:11:12;101375.72;;;22.74
37452;BMP280;23314;51.114;6.900;2023-05-14T10:13:45;101376.38;;;22.89
37452;BMP280;23314;51.114;6.900;2023-05-14T10:16:15;101366.66;;;23.09
37452;BMP280;23314;51.114;6.900;2023-05-14T10:18:45;101369.41;;;23.35
37452;BMP280;23314;51.114;6.900;2023-05-14T10:21:13;101374.47;;;23.54
37452;BMP280;23314;51.114;6.900;2023-05-14T10:23:39;101362.69;;;23.68
37452;BMP280;23314;51.114;6.900;2023-05-14T10:26:06;101360.31;;;23.82
37452;BMP280;23314;51.114;6.900;2023-05-14T10:28:32;101353.41;;;23.86
37452;BMP280;23314;51.114;6.900;2023-05-14T10:30:59;101362.34;;;23.87
37452;BMP280;23314;51.114;6.900;2023-05-14T10:33:25;101361.56;;;23.80
37452;BMP280;23314;51.114;6.900;2023-05-14T10:38:31;101353.25;;;24.01
37452;BMP280;23314;51.114;6.900;2023-05-14T10:41:05;101347.13;;;24.17
37452;BMP280;23314;51.114;6.900;2023-05-14T10:43:36;101342.72;;;24.31
37452;BMP280;23314;51.114;6.900;2023-05-14T10:46:02;101344.00;;;24.47
37452;BMP280;23314;51.114;6.900;2023-05-14T10:48:28;101340.06;;;24.48
37452;BMP280;23314;51.114;6.900;2023-05-14T10:50:55;101334.53;;;24.31
37452;BMP280;23314;51.114;6.900;2023-05-14T10:53:30;101322.84;;;24.20
37452;BMP280;23314;51.114;6.900;2023-05-14T10:55:56;101328.59;;;24.39
37452;BMP280;23314;51.114;6.900;2023-05-14T10:58:21;101329.66;;;24.58
37452;BMP280;23314;51.114;6.900;2023-05-14T11:00:46;101324.47;;;24.72
37452;BMP280;23314;51.114;6.900;2023-05-14T11:03:14;101322.50;;;24.66
37452;BMP280;23314;51.114;6.900;2023-05-14T11:05:40;101312.06;;;24.82
37452;BMP280;23314;51.114;6.900;2023-05-14T11:08:07;101314.59;;;25.08
37452;BMP280;23314;51.114;6.900;2023-05-14T11:10:32;101317.06;;;25.17
37452;BMP280;23314;51.114;6.900;2023-05-14T11:12:59;101312.81;;;25.22
37452;BMP280;23314;51.114;6.900;2023-05-14T11:15:25;101312.28;;;25.52
37452;BMP280;23314;51.114;6.900;2023-05-14T11:17:52;101306.50;;;25.78
37452;BMP280;23314;51.114;6.900;2023-05-14T11:20:18;101301.88;;;26.09
37452;BMP280;23314;51.114;6.900;2023-05-14T11:22:45;101302.56;;;26.26
37452;BMP280;23314;51.114;6.900;2023-05-14T11:25:12;101297.75;;;26.32
37452;BMP280;23314;51.114;6.900;2023-05-14T11:27:43;101297.34;;;26.23
37452;BMP280;23314;51.114;6.900;2023-05-14T11:30:16;101304.75;;;25.81
37452;BMP280;23314;51.114;6.900;2023-05-14T11:32:44;101298.41;;;25.33
37452;BMP280;23314;51.114;6.900;2023-05-14T11:35:10;101296.97;;;25.20
37452;BMP280;23314;51.114;6.900;2023-05-14T11:37:35;101286.78;;;25.10
37452;BMP280;23314;51.114;6.900;2023-05-14T11:40:01;101300.19;;;24.96
37452;BMP280;23314;51.114;6.900;2023-05-14T11:42:27;101290.28;;;24.71
37452;BMP280;23314;51.114;6.900;2023-05-14T11:44:52;101284.50;;;24.46
37452;BMP280;23314;51.114;6.900;2023-05-14T11:47:20;101281.50;;;24.38
37452;BMP280;23314;51.114;6.900;2023-05-14T11:49:46;101278.75;;;24.21
37452;BMP280;23314;51.114;6.900;2023-05-14T11:52:13;101277.22;;;24.14
37452;BMP280;23314;51.114;6.900;2023-05-14T11:54:41;101281.88;;;24.03
37452;BMP280;23314;51.114;6.900;2023-05-14T11:57:09;101272.22;;;24.02
37452;BMP280;23314;51.114;6.900;2023-05-14T11:59:36;101266.31;;;24.09
37452;BMP280;23314;51.114;6.900;2023-05-14T12:02:03;101271.31;;;24.16
37452;BMP280;23314;51.114;6.900;2023-05-14T12:04:29;101268.13;;;24.23
37452;BMP280;23314;51.114;6.900;2023-05-14T12:06:57;101260.19;;;24.37
37452;BMP280;23314;51.114;6.900;2023-05-14T12:09:23;101257.69;;;24.39
37452;BMP280;23314;51.114;6.900;2023-05-14T12:11:49;101253.03;;;24.45
37452;BMP280;23314;51.114;6.900;2023-05-14T12:14:18;101244.84;;;24.62
37452;BMP280;23314;51.114;6.900;2023-05-14T12:16:44;101245.59;;;24.79
37452;BMP280;23314;51.114;6.900;2023-05-14T12:19:12;101250.06;;;24.82
37452;BMP280;23314;51.114;6.900;2023-05-14T12:21:38;101239.63;;;24.86
37452;BMP280;23314;51.114;6.900;2023-05-14T12:24:15;101248.31;;;24.96
37452;BMP280;23314;51.114;6.900;2023-05-14T12:26:46;101242.63;;;24.94
37452;BMP280;23314;51.114;6.900;2023-05-14T12:29:13;101241.38;;;24.84
37452;BMP280;23314;51.114;6.900;2023-05-14T12:31:47;101244.84;;;24.67
37452;BMP280;23314;51.114;6.900;2023-05-14T12:34:14;101240.91;;;24.74
37452;BMP280;23314;51.114;6.900;2023-05-14T12:36:40;101232.69;;;24.80
37452;BMP280;23314;51.114;6.900;2023-05-14T12:39:06;101227.72;;;24.90
37452;BMP280;23314;51.114;6.900;2023-05-14T12:41:32;101233.69;;;24.88
37452;BMP280;23314;51.114;6.900;2023-05-14T12:43:58;101237.16;;;24.83
37452;BMP280;23314;51.114;6.900;2023-05-14T12:46:25;101229.00;;;24.77
37452;BMP280;23314;51.114;6.900;2023-05-14T12:48:51;101222.78;;;24.77
37452;BMP280;23314;51.114;6.900;2023-05-14T12:51:16;101217.59;;;24.84
37452;BMP280;23314;51.114;6.900;2023-05-14T12:53:41;101208.13;;;24.85
37452;BMP280;23314;51.114;6.900;2023-05-14T12:56:07;101209.59;;;25.03
37452;BMP280;23314;51.114;6.900;2023-05-14T12:58:32;101195.94;;;25.03
37452;BMP280;23314;51.114;6.900;2023-05-14T13:00:58;101200.66;;;25.09
37452;BMP280;23314;51.114;6.900;2023-05-14T13:03:23;101192.97;;;25.01
37452;BMP280;23314;51.114;6.900;2023-05-14T13:05:52;101197.44;;;25.04
37452;BMP280;23314;51.114;6.900;2023-05-14T13:08:20;101184.56;;;24.99
37452;BMP280;23314;51.114;6.900;2023-05-14T13:10:46;101203.66;;;25.05
37452;BMP280;23314;51.114;6.900;2023-05-14T13:13:14;101178.59;;;25.07
37452;BMP280;23314;51.114;6.900;2023-05-14T13:15:39;101195.66;;;25.24
37452;BMP280;23314;51.114;6.900;2023-05-14T13:18:05;101193.88;;;25.44
37452;BMP280;23314;51.114;6.900;2023-05-14T13:20:32;101191.34;;;25.46
37452;BMP280;23314;51.114;6.900;2023-05-14T13:22:57;101185.88;;;25.51
37452;BMP280;23314;51.114;6.900;2023-05-14T13:25:23;101189.03;;;25.67
37452;BMP280;23314;51.114;6.900;2023-05-14T13:27:49;101183.28;;;25.76
37452;BMP280;23314;51.114;6.900;2023-05-14T13:30:17;101179.47;;;25.90
37452;BMP280;23314;51.114;6.900;2023-05-14T13:32:43;101176.91;;;26.04
37452;BMP280;23314;51.114;6.900;2023-05-14T13:35:10;101172.63;;;26.08
37452;BMP280;23314;51.114;6.900;2023-05-14T13:37:42;101184.63;;;26.00
37452;BMP280;23314;51.114;6.900;2023-05-14T13:40:08;101170.53;;;25.84
37452;BMP280;23314;51.114;6.900;2023-05-14T13:42:37;101173.84;;;25.71
37452;BMP280;23314;51.114;6.900;2023-05-14T13:45:06;101170.69;;;25.62
37452;BMP280;23314;51.114;6.900;2023-05-14T13:47:31;101165.22;;;25.62
37452;BMP280;23314;51.114;6.900;2023-05-14T13:49:58;101169.66;;;25.65
37452;BMP280;23314;51.114;6.900;2023-05-14T13:52:27;101168.66;;;25.68
37452;BMP280;23314;51.114;6.900;2023-05-14T13:54:54;101158.50;;;25.68
37452;BMP280;23314;51.114;6.900;2023-05-14T13:57:19;101158.69;;;25.70
37452;BMP280;23314;51.114;6.900;2023-05-14T13:59:46;101160.94;;;25.72
37452;BMP280;23314;51.114;6.900;2023-05-14T14:02:12;101154.25;;;25.73
37452;BMP280;23314;51.114;6.900;2023-05-14T14:04:37;101157.22;;;25.69
37452;BMP280;23314;51.114;6.900;2023-05-14T14:07:03;101157.50;;;25.66
37452;BMP280;23314;51.114;6.900;2023-05-14T14:09:28;101143.16;;;25.54
37452;BMP280;23314;51.114;6.900;2023-05-14T14:12:00;101149.13;;;25.52
37452;BMP280;23314;51.114;6.900;2023-05-14T14:14:26;101146.38;;;25.58
37452;BMP280;23314;51.114;6.900;2023-05-14T14:16:52;101139.84;;;25.67
37452;BMP280;23314;51.114;6.900;2023-05-14T14:19:19;101136.31;;;25.77
37452;BMP280;23314;51.114;6.900;2023-05-14T14:21:45;101132.28;;;25.90
37452;BMP280;23314;51.114;6.900;2023-05-14T14:24:10;101126.47;;;25.99
37452;BMP280;23314;51.114;6.900;2023-05-14T14:26:37;101133.88;;;26.04
37452;BMP280;23314;51.114;6.900;2023-05-14T14:29:04;101125.31;;;25.89
37452;BMP280;23314;51.114;6.900;2023-05-14T14:31:30;101128.78;;;25.89
37452;BMP280;23314;51.114;6.900;2023-05-14T14:33:55;101126.06;;;25.89
37452;BMP280;23314;51.114;6.900;2023-05-14T14:36:21;101128.84;;;25.84
37452;BMP280;23314;51.114;6.900;2023-05-14T14:38:47;101124.06;;;25.90
37452;BMP280;23314;51.114;6.900;2023-05-14T14:41:13;101117.13;;;25.89
37452;BMP280;23314;51.114;6.900;2023-05-14T14:43:39;101119.50;;;26.04
37452;BMP280;23314;51.114;6.900;2023-05-14T14:46:05;101113.88;;;26.21
37452;BMP280;23314;51.114;6.900;2023-05-14T14:48:34;101119.16;;;26.13
37452;BMP280;23314;51.114;6.900;2023-05-14T14:51:04;101125.22;;;26.00
37452;BMP280;23314;51.114;6.900;2023-05-14T14:53:32;101115.59;;;25.93
37452;BMP280;23314;51.114;6.900;2023-05-14T14:55:59;101109.50;;;25.70
37452;BMP280;23314;51.114;6.900;2023-05-14T14:58:26;101118.25;;;25.69
37452;BMP280;23314;51.114;6.900;2023-05-14T15:00:54;101112.50;;;25.67
37452;BMP280;23314;51.114;6.900;2023-05-14T15:03:21;101107.53;;;25.71
37452;BMP280;23314;51.114;6.900;2023-05-14T15:05:48;101111.72;;;25.77
37452;BMP280;23314;51.114;6.900;2023-05-14T15:08:17;101109.38;;;25.93
37452;BMP280;23314;51.114;6.900;2023-05-14T15:10:43;101110.81;;;26.00
37452;BMP280;23314;51.114;6.900;2023-05-14T15:13:11;101114.03;;;26.04
37452;BMP280;23314;51.114;6.900;2023-05-14T15:15:36;101102.66;;;25.94
37452;BMP280;23314;51.114;6.900;2023-05-14T15:18:03;101120.31;;;25.87
37452;BMP280;23314;51.114;6.900;2023-05-14T15:20:29;101108.75;;;25.75
37452;BMP280;23314;51.114;6.900;2023-05-14T15:22:55;101099.34;;;25.71
37452;BMP280;23314;51.114;6.900;2023-05-14T15:25:22;101102.53;;;25.75
37452;BMP280;23314;51.114;6.900;2023-05-14T15:27:49;101105.47;;;25.83
37452;BMP280;23314;51.114;6.900;2023-05-14T15:30:15;101109.25;;;25.74
37452;BMP280;23314;51.114;6.900;2023-05-14T15:32:41;101093.34;;;25.78
37452;BMP280;23314;51.114;6.900;2023-05-14T15:35:07;101102.50;;;25.81
37452;BMP280;23314;51.114;6.900;2023-05-14T15:37:40;101098.78;;;25.84
37452;BMP280;23314;51.114;6.900;2023-05-14T15:40:08;101098.25;;;25.85
37452;BMP280;23314;51.114;6.900;2023-05-14T15:42:39;101106.97;;;25.84
37452;BMP280;23314;51.114;6.900;2023-05-14T15:45:07;101106.72;;;25.82
37452;BMP280;23314;51.114;6.900;2023-05-14T15:47:32;101097.56;;;25.79
37452;BMP280;23314;51.114;6.900;2023-05-14T15:49:58;101095.31;;;25.77
37452;BMP280;23314;51.114;6.900;2023-05-14T15:52:24;101095.66;;;25.68
37452;BMP280;23314;51.114;6.900;2023-05-14T15:54:50;101100.94;;;25.55
37452;BMP280;23314;51.114;6.900;2023-05-14T15:57:16;101101.03;;;25.38
37452;BMP280;23314;51.114;6.900;2023-05-14T15:59:41;101090.91;;;25.27
37452;BMP280;23314;51.114;6.900;2023-05-14T16:02:09;101095.88;;;25.23
37452;BMP280;23314;51.114;6.900;2023-05-14T16:04:40;101100.63;;;25.17
37452;BMP280;23314;51.114;6.900;2023-05-14T16:07:07;101091.19;;;25.12
37452;BMP280;23314;51.114;6.900;2023-05-14T16:09:37;101090.97;;;25.10
37452;BMP280;23314;51.114;6.900;2023-05-14T16:12:04;101103.88;;;25.10
37452;BMP280;23314;51.114;6.900;2023-05-14T16:14:34;101101.41;;;25.06
37452;BMP280;23314;51.114;6.900;2023-05-14T16:17:00;101095.47;;;24.96
37452;BMP280;23314;51.114;6.900;2023-05-14T16:19:31;101105.91;;;24.86
37452;BMP280;23314;51.114;6.900;2023-05-14T16:21:57;101096.22;;;24.85
37452;BMP280;23314;51.114;6.900;2023-05-14T16:24:22;101097.72;;;24.86
37452;BMP280;23314;51.114;6.900;2023-05-14T16:26:48;101093.50;;;24.85
37452;BMP280;23314;51.114;6.900;2023-05-14T16:29:15;101092.03;;;24.90
37452;BMP280;23314;51.114;6.900;2023-05-14T16:31:41;101092.53;;;24.94
37452;BMP280;23314;51.114;6.900;2023-05-14T16:34:08;101095.25;;;24.94
37452;BMP280;23314;51.114;6.900;2023-05-14T16:36:33;101097.00;;;24.86
37452;BMP280;23314;51.114;6.900;2023-05-14T16:38:59;101089.28;;;24.96
37452;BMP280;23314;51.114;6.900;2023-05-14T16:41:27;101089.28;;;24.96
37452;BMP280;23314;51.114;6.900;2023-05-14T16:43:52;101088.56;;;24.95
37452;BMP280;23314;51.114;6.900;2023-05-14T16:46:18;101091.97;;;25.01
37452;BMP280;23314;51.114;6.900;2023-05-14T16:48:44;101093.47;;;25.02
37452;BMP280;23314;51.114;6.900;2023-05-14T16:51:09;101092.97;;;24.98
37452;BMP280;23314;51.114;6.900;2023-05-14T16:53:34;101094.75;;;24.90
37452;BMP280;23314;51.114;6.900;2023-05-14T16:56:00;101094.06;;;24.78
37452;BMP280;23314;51.114;6.900;2023-05-14T16:58:25;101098.03;;;24.72
37452;BMP280;23314;51.114;6.900;2023-05-14T17:00:51;101096.06;;;24.66
37452;BMP280;23314;51.114;6.900;2023-05-14T17:03:16;101102.03;;;24.59
37452;BMP280;23314;51.114;6.900;2023-05-14T17:05:41;101095.81;;;24.53
37452;BMP280;23314;51.114;6.900;2023-05-14T17:08:07;101099.78;;;24.46
37452;BMP280;23314;51.114;6.900;2023-05-14T17:10:32;101095.84;;;24.42
37452;BMP280;23314;51.114;6.900;2023-05-14T17:12:58;101098.06;;;24.49
37452;BMP280;23314;51.114;6.900;2023-05-14T17:15:24;101094.34;;;24.58
37452;BMP280;23314;51.114;6.900;2023-05-14T17:17:50;101097.28;;;24.71
37452;BMP280;23314;51.114;6.900;2023-05-14T17:20:15;101096.75;;;24.84
37452;BMP280;23314;51.114;6.900;2023-05-14T17:22:41;101095.25;;;24.94
37452;BMP280;23314;51.114;6.900;2023-05-14T17:25:08;101090.97;;;25.04
37452;BMP280;23314;51.114;6.900;2023-05-14T17:27:34;101098.44;;;25.04
37452;BMP280;23314;51.114;6.900;2023-05-14T17:30:01;101099.44;;;25.01
37452;BMP280;23314;51.114;6.900;2023-05-14T17:32:26;101098.72;;;24.95
37452;BMP280;23314;51.114;6.900;2023-05-14T17:34:54;101102.72;;;24.82
37452;BMP280;23314;51.114;6.900;2023-05-14T17:37:24;101100.75;;;24.66
37452;BMP280;23314;51.114;6.900;2023-05-14T17:39:49;101100.03;;;24.65
37452;BMP280;23314;51.114;6.900;2023-05-14T17:42:15;101103.75;;;24.57
37452;BMP280;23314;51.114;6.900;2023-05-14T17:44:41;101103.00;;;24.39
37452;BMP280;23314;51.114;6.900;2023-05-14T17:47:07;101092.38;;;24.24
37452;BMP280;23314;51.114;6.900;2023-05-14T17:49:33;101106.72;;;24.13
37452;BMP280;23314;51.114;6.900;2023-05-14T17:51:59;101107.47;;;23.97
37452;BMP280;23314;51.114;6.900;2023-05-14T17:54:25;101103.94;;;23.79
37452;BMP280;23314;51.114;6.900;2023-05-14T17:56:51;101115.06;;;23.65
37452;BMP280;23314;51.114;6.900;2023-05-14T17:59:17;101116.28;;;23.52
37452;BMP280;23314;51.114;6.900;2023-05-14T18:01:42;101116.47;;;23.43
37452;BMP280;23314;51.114;6.900;2023-05-14T18:04:08;101120.63;;;23.33
37452;BMP280;23314;51.114;6.900;2023-05-14T18:06:36;101117.88;;;23.21
37452;BMP280;23314;51.114;6.900;2023-05-14T18:09:01;101121.00;;;23.08
37452;BMP280;23314;51.114;6.900;2023-05-14T18:11:27;101119.66;;;22.92
37452;BMP280;23314;51.114;6.900;2023-05-14T18:14:01;101127.00;;;22.81
37452;BMP280;23314;51.114;6.900;2023-05-14T18:16:27;101125.69;;;22.70
37452;BMP280;23314;51.114;6.900;2023-05-14T18:18:54;101118.00;;;22.63
37452;BMP280;23314;51.114;6.900;2023-05-14T18:21:21;101128.34;;;22.59
37452;BMP280;23314;51.114;6.900;2023-05-14T18:23:46;101131.75;;;22.54
37452;BMP280;23314;51.114;6.900;2023-05-14T18:26:12;101124.03;;;22.47
37452;BMP280;23314;51.114;6.900;2023-05-14T18:28:37;101123.97;;;22.41
37452;BMP280;23314;51.114;6.900;2023-05-14T18:31:04;101127.66;;;22.38
37452;BMP280;23314;51.114;6.900;2023-05-14T18:33:30;101130.59;;;22.34
37452;BMP280;23314;51.114;6.900;2023-05-14T18:35:56;101135.25;;;22.28
37452;BMP280;23314;51.114;6.900;2023-05-14T18:38:22;101136.13;;;22.19
37452;BMP280;23314;51.114;6.900;2023-05-14T18:40:47;101136.50;;;22.07
37452;BMP280;23314;51.114;6.900;2023-05-14T18:43:14;101142.28;;;21.94
37452;BMP280;23314;51.114;6.900;2023-05-14T18:45:41;101150.56;;;21.84
37452;BMP280;23314;51.114;6.900;2023-05-14T18:48:08;101158.31;;;21.71
37452;BMP280;23314;51.114;6.900;2023-05-14T18:50:34;101153.69;;;21.57
37452;BMP280;23314;51.114;6.900;2023-05-14T18:53:00;101148.38;;;21.47
37452;BMP280;23314;51.114;6.900;2023-05-14T18:55:25;101161.81;;;21.36
37452;BMP280;23314;51.114;6.900;2023-05-14T18:57:51;101155.19;;;21.22
37452;BMP280;23314;51.114;6.900;2023-05-14T19:00:17;101159.88;;;21.07
37452;BMP280;23314;51.114;6.900;2023-05-14T19:02:44;101157.09;;;20.86
37452;BMP280;23314;51.114;6.900;2023-05-14T19:05:09;101165.34;;;20.62
37452;BMP280;23314;51.114;6.900;2023-05-14T19:07:38;101160.88;;;20.35
37452;BMP280;23314;51.114;6.900;2023-05-14T19:10:05;101161.06;;;20.07
37452;BMP280;23314;51.114;6.900;2023-05-14T19:12:31;101161.09;;;19.83
37452;BMP280;23314;51.114;6.900;2023-05-14T19:14:58;101151.50;;;19.72
37452;BMP280;23314;51.114;6.900;2023-05-14T19:17:23;101157.72;;;19.64
37452;BMP280;23314;51.114;6.900;2023-05-14T19:19:49;101154.19;;;19.48
37452;BMP280;23314;51.114;6.900;2023-05-14T19:22:14;101150.63;;;19.42
37452;BMP280;23314;51.114;6.900;2023-05-14T19:24:40;101141.78;;;19.41
37452;BMP280;23314;51.114;6.900;2023-05-14T19:27:05;101158.59;;;19.46
37452;BMP280;23314;51.114;6.900;2023-05-14T19:29:31;101146.25;;;19.45
37452;BMP280;23314;51.114;6.900;2023-05-14T19:31:57;101153.16;;;19.46
37452;BMP280;23314;51.114;6.900;2023-05-14T19:34:23;101153.91;;;19.46
37452;BMP280;23314;51.114;6.900;2023-05-14T19:36:48;101164.25;;;19.48
37452;BMP280;23314;51.114;6.900;2023-05-14T19:39:14;101153.72;;;19.50
37452;BMP280;23314;51.114;6.900;2023-05-14T19:41:39;101165.31;;;19.50
37452;BMP280;23314;51.114;6.900;2023-05-14T19:44:04;101162.31;;;19.48
37452;BMP280;23314;51.114;6.900;2023-05-14T19:46:30;101167.72;;;19.48
37452;BMP280;23314;51.114;6.900;2023-05-14T19:48:55;101169.41;;;19.46
37452;BMP280;23314;51.114;6.900;2023-05-14T19:51:20;101170.88;;;19.47
37452;BMP280;23314;51.114;6.900;2023-05-14T19:53:46;101179.47;;;19.45
37452;BMP280;23314;51.114;6.900;2023-05-14T19:56:11;101172.53;;;19.44
37452;BMP280;23314;51.114;6.900;2023-05-14T19:58:36;101179.94;;;19.43
